Terminal Aerodrome Forecast
Issued by NWS Albany, NY

Home | Current Version | Previous Version | Text Only | Print | Product List | Glossary On
Versions: 1 2 3 4 5 6 7 8 9 10 11 12 13 14 15 16 17 18 19 20 21 22 23 24 25 26 27 28
505
FTUS41 KALY 181720
TAFALB
TAF
KALB 181720Z 1818/1918 17010KT P6SM BKN100 OVC130
     FM182000 17012G17KT P6SM VCSH OVC035
     FM182300 17012G20KT 5SM -RA BR OVC020
     FM190200 17010G18KT 3SM -RA BR OVC007
     FM190800 20011KT P6SM VCSH OVC015
     FM191200 22012G20KT P6SM VCSH OVC035
     FM191500 29019G30KT P6SM BKN050 BKN100=

USA.gov is the U.S. government's official web portal to all federal, state and local government web resources and services.